sensor_id;sensor_type;location;lat;lon;timestamp;pressure;altitude;pressure_sealevel;temperature;humidity
11198;BME280;5655;48.744;9.162;2023-12-20T00:00:37;96064.91;;;7.20;100.00
11198;BME280;5655;48.744;9.162;2023-12-20T00:03:03;96059.91;;;7.19;100.00
11198;BME280;5655;48.744;9.162;2023-12-20T00:05:29;96055.72;;;7.18;100.00
11198;BME280;5655;48.744;9.162;2023-12-20T00:07:54;96058.09;;;7.23;100.00
11198;BME280;5655;48.744;9.162;2023-12-20T00:10:19;96051.94;;;7.19;100.00
11198;BME280;5655;48.744;9.162;2023-12-20T00:12:45;96050.53;;;7.25;100.00
11198;BME280;5655;48.744;9.162;2023-12-20T00:15:10;96061.06;;;7.37;100.00
11198;BME280;5655;48.744;9.162;2023-12-20T00:17:36;96056.16;;;7.20;100.00
11198;BME280;5655;48.744;9.162;2023-12-20T00:20:01;96053.63;;;7.27;100.00
11198;BME280;5655;48.744;9.162;2023-12-20T00:22:26;96050.31;;;7.14;100.00
11198;BME280;5655;48.744;9.162;2023-12-20T00:24:51;96044.47;;;7.24;100.00
11198;BME280;5655;48.744;9.162;2023-12-20T00:27:17;96027.13;;;7.34;100.00
11198;BME280;5655;48.744;9.162;2023-12-20T00:29:42;96032.56;;;7.38;100.00
11198;BME280;5655;48.744;9.162;2023-12-20T00:32:09;96024.22;;;7.20;100.00
11198;BME280;5655;48.744;9.162;2023-12-20T00:34:35;96024.66;;;7.41;100.00
11198;BME280;5655;48.744;9.162;2023-12-20T00:37:00;96025.75;;;7.40;100.00
11198;BME280;5655;48.744;9.162;2023-12-20T00:39:25;96017.00;;;7.20;100.00
11198;BME280;5655;48.744;9.162;2023-12-20T00:41:50;96019.28;;;7.22;100.00
11198;BME280;5655;48.744;9.162;2023-12-20T00:44:16;96014.03;;;7.25;100.00
11198;BME280;5655;48.744;9.162;2023-12-20T00:46:41;96016.91;;;7.17;100.00
11198;BME280;5655;48.744;9.162;2023-12-20T00:49:06;96007.81;;;7.18;100.00
11198;BME280;5655;48.744;9.162;2023-12-20T00:51:32;95995.34;;;7.03;100.00
11198;BME280;5655;48.744;9.162;2023-12-20T00:53:57;96000.66;;;7.03;100.00
11198;BME280;5655;48.744;9.162;2023-12-20T00:56:22;95994.19;;;7.04;100.00
11198;BME280;5655;48.744;9.162;2023-12-20T00:58:47;95986.22;;;7.04;100.00
11198;BME280;5655;48.744;9.162;2023-12-20T01:01:13;95982.44;;;7.05;100.00
11198;BME280;5655;48.744;9.162;2023-12-20T01:03:38;95974.63;;;7.12;100.00
11198;BME280;5655;48.744;9.162;2023-12-20T01:06:04;95977.28;;;7.12;100.00
11198;BME280;5655;48.744;9.162;2023-12-20T01:08:30;95974.44;;;7.05;100.00
11198;BME280;5655;48.744;9.162;2023-12-20T01:13:23;95992.78;;;6.91;100.00
11198;BME280;5655;48.744;9.162;2023-12-20T01:15:48;95991.38;;;6.97;100.00
11198;BME280;5655;48.744;9.162;2023-12-20T01:18:14;95979.84;;;6.89;100.00
11198;BME280;5655;48.744;9.162;2023-12-20T01:20:40;95983.53;;;6.84;100.00
11198;BME280;5655;48.744;9.162;2023-12-20T01:23:05;95986.19;;;6.84;100.00
11198;BME280;5655;48.744;9.162;2023-12-20T01:25:30;95986.97;;;6.85;100.00
11198;BME280;5655;48.744;9.162;2023-12-20T01:27:56;95988.22;;;6.91;100.00
11198;BME280;5655;48.744;9.162;2023-12-20T01:30:21;95985.34;;;6.80;100.00
11198;BME280;5655;48.744;9.162;2023-12-20T01:32:46;95995.03;;;6.89;100.00
11198;BME280;5655;48.744;9.162;2023-12-20T01:35:12;96004.13;;;6.88;100.00
11198;BME280;5655;48.744;9.162;2023-12-20T01:37:38;96023.47;;;7.04;100.00
11198;BME280;5655;48.744;9.162;2023-12-20T01:40:04;96021.56;;;7.04;100.00
11198;BME280;5655;48.744;9.162;2023-12-20T01:42:30;96023.97;;;7.09;100.00
11198;BME280;5655;48.744;9.162;2023-12-20T01:44:55;96021.22;;;7.06;100.00
11198;BME280;5655;48.744;9.162;2023-12-20T01:47:20;96027.84;;;7.12;100.00
11198;BME280;5655;48.744;9.162;2023-12-20T01:49:47;96030.50;;;7.12;100.00
11198;BME280;5655;48.744;9.162;2023-12-20T01:52:13;96033.75;;;7.05;100.00
11198;BME280;5655;48.744;9.162;2023-12-20T01:54:38;96031.69;;;7.14;100.00
11198;BME280;5655;48.744;9.162;2023-12-20T01:57:05;96033.31;;;7.19;100.00
11198;BME280;5655;48.744;9.162;2023-12-20T01:59:31;96023.38;;;7.00;100.00
11198;BME280;5655;48.744;9.162;2023-12-20T02:01:56;96021.22;;;7.06;100.00
11198;BME280;5655;48.744;9.162;2023-12-20T02:04:22;96027.53;;;6.98;100.00
11198;BME280;5655;48.744;9.162;2023-12-20T02:06:48;96027.25;;;7.03;100.00
11198;BME280;5655;48.744;9.162;2023-12-20T02:09:17;96007.84;;;6.67;100.00
11198;BME280;5655;48.744;9.162;2023-12-20T02:11:43;96006.34;;;6.19;100.00
11198;BME280;5655;48.744;9.162;2023-12-20T02:14:08;96026.88;;;6.07;100.00
11198;BME280;5655;48.744;9.162;2023-12-20T02:16:34;96045.50;;;6.07;100.00
11198;BME280;5655;48.744;9.162;2023-12-20T02:18:59;96061.28;;;6.15;100.00
11198;BME280;5655;48.744;9.162;2023-12-20T02:21:25;96085.47;;;6.42;100.00
11198;BME280;5655;48.744;9.162;2023-12-20T02:23:56;96086.00;;;6.47;100.00
11198;BME280;5655;48.744;9.162;2023-12-20T02:26:22;96092.44;;;6.46;100.00
11198;BME280;5655;48.744;9.162;2023-12-20T02:28:47;96096.44;;;6.40;100.00
11198;BME280;5655;48.744;9.162;2023-12-20T02:31:12;96108.66;;;6.72;100.00
11198;BME280;5655;48.744;9.162;2023-12-20T02:33:38;96096.28;;;6.80;100.00
11198;BME280;5655;48.744;9.162;2023-12-20T02:36:06;96094.63;;;7.07;100.00
11198;BME280;5655;48.744;9.162;2023-12-20T02:38:31;96073.28;;;6.88;100.00
11198;BME280;5655;48.744;9.162;2023-12-20T02:40:56;96079.34;;;7.04;100.00
11198;BME280;5655;48.744;9.162;2023-12-20T02:43:22;96077.03;;;7.02;100.00
11198;BME280;5655;48.744;9.162;2023-12-20T02:45:47;96066.97;;;7.11;100.00
11198;BME280;5655;48.744;9.162;2023-12-20T02:48:12;96071.34;;;7.04;100.00
11198;BME280;5655;48.744;9.162;2023-12-20T02:50:38;96066.50;;;7.25;100.00
11198;BME280;5655;48.744;9.162;2023-12-20T02:53:03;96065.25;;;7.03;100.00
11198;BME280;5655;48.744;9.162;2023-12-20T02:55:28;96059.47;;;7.17;100.00
11198;BME280;5655;48.744;9.162;2023-12-20T02:57:54;96064.13;;;7.20;100.00
11198;BME280;5655;48.744;9.162;2023-12-20T03:00:19;96060.72;;;7.04;100.00
11198;BME280;5655;48.744;9.162;2023-12-20T03:02:44;96062.53;;;7.00;100.00
11198;BME280;5655;48.744;9.162;2023-12-20T03:05:09;96058.72;;;6.81;100.00
11198;BME280;5655;48.744;9.162;2023-12-20T03:07:36;96064.78;;;6.98;100.00
11198;BME280;5655;48.744;9.162;2023-12-20T03:10:02;96067.88;;;6.84;100.00
11198;BME280;5655;48.744;9.162;2023-12-20T03:12:28;96068.81;;;6.92;100.00
11198;BME280;5655;48.744;9.162;2023-12-20T03:14:53;96073.00;;;6.93;100.00
11198;BME280;5655;48.744;9.162;2023-12-20T03:17:18;96076.09;;;6.95;100.00
11198;BME280;5655;48.744;9.162;2023-12-20T03:19:45;96088.78;;;7.01;100.00
11198;BME280;5655;48.744;9.162;2023-12-20T03:22:11;96078.59;;;6.88;100.00
11198;BME280;5655;48.744;9.162;2023-12-20T03:24:36;96079.00;;;7.05;100.00
11198;BME280;5655;48.744;9.162;2023-12-20T03:27:01;96088.47;;;7.03;100.00
11198;BME280;5655;48.744;9.162;2023-12-20T03:29:26;96080.28;;;6.96;100.00
11198;BME280;5655;48.744;9.162;2023-12-20T03:31:52;96079.63;;;6.99;100.00
11198;BME280;5655;48.744;9.162;2023-12-20T03:34:17;96085.97;;;6.94;100.00
11198;BME280;5655;48.744;9.162;2023-12-20T03:36:42;96089.50;;;6.82;100.00
11198;BME280;5655;48.744;9.162;2023-12-20T03:39:07;96094.41;;;6.80;100.00
11198;BME280;5655;48.744;9.162;2023-12-20T03:41:35;96095.25;;;6.84;100.00
11198;BME280;5655;48.744;9.162;2023-12-20T03:44:00;96095.34;;;6.72;100.00
11198;BME280;5655;48.744;9.162;2023-12-20T03:46:25;96106.50;;;6.94;100.00
11198;BME280;5655;48.744;9.162;2023-12-20T03:48:51;96099.28;;;6.63;100.00
11198;BME280;5655;48.744;9.162;2023-12-20T03:51:16;96099.47;;;6.54;100.00
11198;BME280;5655;48.744;9.162;2023-12-20T03:53:41;96099.63;;;6.46;100.00
11198;BME280;5655;48.744;9.162;2023-12-20T03:56:07;96100.84;;;6.64;100.00
11198;BME280;5655;48.744;9.162;2023-12-20T03:58:32;96095.63;;;6.08;100.00
11198;BME280;5655;48.744;9.162;2023-12-20T04:00:57;96098.72;;;6.10;100.00
11198;BME280;5655;48.744;9.162;2023-12-20T04:03:23;96098.03;;;5.85;100.00
11198;BME280;5655;48.744;9.162;2023-12-20T04:05:48;96104.91;;;5.74;100.00
11198;BME280;5655;48.744;9.162;2023-12-20T04:08:13;96124.38;;;5.78;100.00
11198;BME280;5655;48.744;9.162;2023-12-20T04:10:38;96130.44;;;5.79;100.00
11198;BME280;5655;48.744;9.162;2023-12-20T04:13:04;96141.19;;;5.82;100.00
11198;BME280;5655;48.744;9.162;2023-12-20T04:15:29;96144.41;;;5.88;100.00
11198;BME280;5655;48.744;9.162;2023-12-20T04:17:55;96147.16;;;5.79;100.00
11198;BME280;5655;48.744;9.162;2023-12-20T04:20:20;96145.41;;;5.71;100.00
11198;BME280;5655;48.744;9.162;2023-12-20T04:22:45;96150.72;;;5.71;100.00
11198;BME280;5655;48.744;9.162;2023-12-20T04:25:11;96167.00;;;5.58;100.00
11198;BME280;5655;48.744;9.162;2023-12-20T04:27:36;96186.16;;;5.51;100.00
11198;BME280;5655;48.744;9.162;2023-12-20T04:30:01;96203.88;;;5.47;100.00
11198;BME280;5655;48.744;9.162;2023-12-20T04:32:27;96211.38;;;5.45;100.00
11198;BME280;5655;48.744;9.162;2023-12-20T04:34:52;96214.38;;;5.43;100.00
11198;BME280;5655;48.744;9.162;2023-12-20T04:37:17;96222.78;;;5.45;100.00
11198;BME280;5655;48.744;9.162;2023-12-20T04:39:43;96223.97;;;5.48;100.00
11198;BME280;5655;48.744;9.162;2023-12-20T04:42:08;96232.41;;;5.50;100.00
11198;BME280;5655;48.744;9.162;2023-12-20T04:44:34;96246.84;;;6.41;100.00
11198;BME280;5655;48.744;9.162;2023-12-20T04:46:59;96225.09;;;6.51;100.00
11198;BME280;5655;48.744;9.162;2023-12-20T04:49:25;96217.16;;;6.39;100.00
11198;BME280;5655;48.744;9.162;2023-12-20T04:51:50;96205.66;;;6.35;100.00
11198;BME280;5655;48.744;9.162;2023-12-20T04:54:15;96205.63;;;6.47;100.00
11198;BME280;5655;48.744;9.162;2023-12-20T04:56:41;96174.84;;;6.46;100.00
11198;BME280;5655;48.744;9.162;2023-12-20T04:59:07;96164.44;;;6.41;100.00
11198;BME280;5655;48.744;9.162;2023-12-20T05:01:32;96170.88;;;6.40;100.00
11198;BME280;5655;48.744;9.162;2023-12-20T05:03:57;96169.44;;;6.43;100.00
11198;BME280;5655;48.744;9.162;2023-12-20T05:06:23;96169.84;;;6.45;100.00
11198;BME280;5655;48.744;9.162;2023-12-20T05:08:48;96174.22;;;6.37;100.00
11198;BME280;5655;48.744;9.162;2023-12-20T05:11:13;96161.63;;;6.34;100.00
11198;BME280;5655;48.744;9.162;2023-12-20T05:13:40;96160.16;;;6.36;100.00
11198;BME280;5655;48.744;9.162;2023-12-20T05:16:05;96161.63;;;6.34;100.00
11198;BME280;5655;48.744;9.162;2023-12-20T05:18:31;96163.19;;;6.23;100.00
11198;BME280;5655;48.744;9.162;2023-12-20T05:20:56;96181.88;;;6.26;100.00
11198;BME280;5655;48.744;9.162;2023-12-20T05:23:22;96181.38;;;6.21;100.00
11198;BME280;5655;48.744;9.162;2023-12-20T05:25:47;96185.84;;;6.32;100.00
11198;BME280;5655;48.744;9.162;2023-12-20T05:28:12;96180.53;;;6.32;100.00
11198;BME280;5655;48.744;9.162;2023-12-20T05:30:38;96191.25;;;6.36;100.00
11198;BME280;5655;48.744;9.162;2023-12-20T05:33:03;96188.47;;;6.45;100.00
11198;BME280;5655;48.744;9.162;2023-12-20T05:35:28;96190.06;;;6.33;100.00
11198;BME280;5655;48.744;9.162;2023-12-20T05:37:54;96193.59;;;6.37;100.00
11198;BME280;5655;48.744;9.162;2023-12-20T05:40:19;96208.09;;;6.40;100.00
11198;BME280;5655;48.744;9.162;2023-12-20T05:42:44;96206.34;;;6.32;100.00
11198;BME280;5655;48.744;9.162;2023-12-20T05:45:10;96208.75;;;6.37;100.00
11198;BME280;5655;48.744;9.162;2023-12-20T05:47:36;96204.56;;;6.36;100.00
11198;BME280;5655;48.744;9.162;2023-12-20T05:50:01;96219.25;;;6.46;100.00
11198;BME280;5655;48.744;9.162;2023-12-20T05:52:26;96214.25;;;6.44;100.00
11198;BME280;5655;48.744;9.162;2023-12-20T05:54:51;96231.38;;;6.31;100.00
11198;BME280;5655;48.744;9.162;2023-12-20T05:57:17;96232.53;;;6.18;100.00
11198;BME280;5655;48.744;9.162;2023-12-20T05:59:42;96243.16;;;6.18;100.00
11198;BME280;5655;48.744;9.162;2023-12-20T06:02:08;96261.47;;;6.35;100.00
11198;BME280;5655;48.744;9.162;2023-12-20T06:04:33;96267.25;;;6.37;100.00
11198;BME280;5655;48.744;9.162;2023-12-20T06:06:58;96264.81;;;6.32;100.00
11198;BME280;5655;48.744;9.162;2023-12-20T06:09:25;96276.63;;;6.47;100.00
11198;BME280;5655;48.744;9.162;2023-12-20T06:11:50;96278.66;;;6.37;100.00
11198;BME280;5655;48.744;9.162;2023-12-20T06:14:16;96265.00;;;6.39;100.00
11198;BME280;5655;48.744;9.162;2023-12-20T06:16:41;96271.72;;;6.49;100.00
11198;BME280;5655;48.744;9.162;2023-12-20T06:19:06;96267.88;;;6.46;100.00
11198;BME280;5655;48.744;9.162;2023-12-20T06:21:32;96267.75;;;6.55;100.00
11198;BME280;5655;48.744;9.162;2023-12-20T06:23:58;96283.38;;;6.44;100.00
11198;BME280;5655;48.744;9.162;2023-12-20T06:26:24;96274.25;;;6.57;100.00
11198;BME280;5655;48.744;9.162;2023-12-20T06:28:49;96267.28;;;6.53;100.00
11198;BME280;5655;48.744;9.162;2023-12-20T06:31:15;96269.38;;;6.59;100.00
11198;BME280;5655;48.744;9.162;2023-12-20T06:33:40;96261.25;;;6.40;100.00
11198;BME280;5655;48.744;9.162;2023-12-20T06:36:11;96259.91;;;6.46;100.00
11198;BME280;5655;48.744;9.162;2023-12-20T06:38:36;96263.34;;;6.47;100.00
11198;BME280;5655;48.744;9.162;2023-12-20T06:41:01;96265.06;;;6.55;100.00
11198;BME280;5655;48.744;9.162;2023-12-20T06:43:27;96267.88;;;6.46;100.00
11198;BME280;5655;48.744;9.162;2023-12-20T06:45:52;96277.97;;;6.41;100.00
11198;BME280;5655;48.744;9.162;2023-12-20T06:48:17;96281.53;;;6.60;100.00
11198;BME280;5655;48.744;9.162;2023-12-20T06:50:43;96293.06;;;6.64;100.00
11198;BME280;5655;48.744;9.162;2023-12-20T06:53:08;96294.19;;;6.63;100.00
11198;BME280;5655;48.744;9.162;2023-12-20T06:55:35;96289.97;;;6.62;100.00
11198;BME280;5655;48.744;9.162;2023-12-20T06:58:02;96300.00;;;6.69;100.00
11198;BME280;5655;48.744;9.162;2023-12-20T07:00:27;96300.56;;;6.74;100.00
11198;BME280;5655;48.744;9.162;2023-12-20T07:02:53;96301.94;;;6.68;100.00
11198;BME280;5655;48.744;9.162;2023-12-20T07:05:18;96303.22;;;6.74;100.00
11198;BME280;5655;48.744;9.162;2023-12-20T07:07:45;96307.84;;;6.77;100.00
11198;BME280;5655;48.744;9.162;2023-12-20T07:10:11;96303.44;;;6.81;100.00
11198;BME280;5655;48.744;9.162;2023-12-20T07:12:37;96304.69;;;6.72;100.00
11198;BME280;5655;48.744;9.162;2023-12-20T07:15:02;96304.59;;;6.56;100.00
11198;BME280;5655;48.744;9.162;2023-12-20T07:17:28;96314.22;;;6.61;100.00
11198;BME280;5655;48.744;9.162;2023-12-20T07:19:53;96314.13;;;6.57;100.00
11198;BME280;5655;48.744;9.162;2023-12-20T07:22:18;96330.69;;;6.78;100.00
11198;BME280;5655;48.744;9.162;2023-12-20T07:24:43;96327.69;;;6.80;100.00
11198;BME280;5655;48.744;9.162;2023-12-20T07:27:09;96324.78;;;6.57;100.00
11198;BME280;5655;48.744;9.162;2023-12-20T07:29:34;96343.19;;;6.50;100.00
11198;BME280;5655;48.744;9.162;2023-12-20T07:32:00;96351.94;;;6.51;100.00
11198;BME280;5655;48.744;9.162;2023-12-20T07:34:25;96356.25;;;6.55;100.00
11198;BME280;5655;48.744;9.162;2023-12-20T07:36:50;96355.63;;;6.46;100.00
11198;BME280;5655;48.744;9.162;2023-12-20T07:39:16;96359.38;;;6.45;100.00
11198;BME280;5655;48.744;9.162;2023-12-20T07:41:41;96346.50;;;6.59;100.00
11198;BME280;5655;48.744;9.162;2023-12-20T07:44:06;96350.94;;;6.55;100.00
11198;BME280;5655;48.744;9.162;2023-12-20T07:46:32;96349.38;;;6.54;100.00
11198;BME280;5655;48.744;9.162;2023-12-20T07:48:57;96361.47;;;6.39;100.00
11198;BME280;5655;48.744;9.162;2023-12-20T07:51:22;96351.44;;;6.09;100.00
11198;BME280;5655;48.744;9.162;2023-12-20T07:53:48;96339.44;;;6.39;100.00
11198;BME280;5655;48.744;9.162;2023-12-20T07:56:19;96335.38;;;6.29;100.00
11198;BME280;5655;48.744;9.162;2023-12-20T07:58:46;96324.66;;;6.02;100.00
11198;BME280;5655;48.744;9.162;2023-12-20T08:01:13;96318.69;;;6.17;100.00
11198;BME280;5655;48.744;9.162;2023-12-20T08:03:38;96311.22;;;6.22;100.00
11198;BME280;5655;48.744;9.162;2023-12-20T08:06:04;96320.97;;;6.30;100.00
11198;BME280;5655;48.744;9.162;2023-12-20T08:08:29;96312.47;;;6.25;100.00
11198;BME280;5655;48.744;9.162;2023-12-20T08:10:55;96323.97;;;6.29;100.00
11198;BME280;5655;48.744;9.162;2023-12-20T08:13:22;96325.97;;;6.20;100.00
11198;BME280;5655;48.744;9.162;2023-12-20T08:15:51;96328.53;;;6.16;100.00
11198;BME280;5655;48.744;9.162;2023-12-20T08:18:16;96325.63;;;6.21;100.00
11198;BME280;5655;48.744;9.162;2023-12-20T08:20:41;96321.34;;;6.05;100.00
11198;BME280;5655;48.744;9.162;2023-12-20T08:23:07;96324.00;;;6.05;100.00
11198;BME280;5655;48.744;9.162;2023-12-20T08:25:32;96322.00;;;6.14;100.00
11198;BME280;5655;48.744;9.162;2023-12-20T08:27:57;96333.50;;;6.18;100.00
11198;BME280;5655;48.744;9.162;2023-12-20T08:30:23;96323.22;;;6.04;100.00
11198;BME280;5655;48.744;9.162;2023-12-20T08:32:48;96320.22;;;6.18;100.00
11198;BME280;5655;48.744;9.162;2023-12-20T08:35:14;96321.69;;;6.03;100.00
11198;BME280;5655;48.744;9.162;2023-12-20T08:37:39;96324.41;;;6.19;100.00
11198;BME280;5655;48.744;9.162;2023-12-20T08:40:05;96333.03;;;6.28;100.00
11198;BME280;5655;48.744;9.162;2023-12-20T08:42:31;96335.41;;;6.05;100.00
11198;BME280;5655;48.744;9.162;2023-12-20T08:44:57;96343.25;;;6.14;100.00
11198;BME280;5655;48.744;9.162;2023-12-20T08:47:23;96342.59;;;6.05;100.00
11198;BME280;5655;48.744;9.162;2023-12-20T08:49:49;96353.66;;;6.07;100.00
11198;BME280;5655;48.744;9.162;2023-12-20T08:52:14;96352.13;;;6.06;100.00
11198;BME280;5655;48.744;9.162;2023-12-20T08:54:39;96356.75;;;6.09;100.00
11198;BME280;5655;48.744;9.162;2023-12-20T08:57:05;96352.09;;;6.18;100.00
11198;BME280;5655;48.744;9.162;2023-12-20T08:59:32;96352.13;;;6.06;100.00
11198;BME280;5655;48.744;9.162;2023-12-20T09:01:57;96346.81;;;6.06;100.00
11198;BME280;5655;48.744;9.162;2023-12-20T09:04:22;96347.00;;;6.13;100.00
11198;BME280;5655;48.744;9.162;2023-12-20T09:06:48;96342.03;;;6.11;100.00
11198;BME280;5655;48.744;9.162;2023-12-20T09:09:13;96333.50;;;6.06;100.00
11198;BME280;5655;48.744;9.162;2023-12-20T09:11:39;96324.53;;;6.10;100.00
11198;BME280;5655;48.744;9.162;2023-12-20T09:14:05;96339.03;;;6.25;100.00
11198;BME280;5655;48.744;9.162;2023-12-20T09:16:30;96348.34;;;6.07;100.00
11198;BME280;5655;48.744;9.162;2023-12-20T09:18:56;96342.16;;;6.03;100.00
11198;BME280;5655;48.744;9.162;2023-12-20T09:21:22;96338.84;;;5.93;100.00
11198;BME280;5655;48.744;9.162;2023-12-20T09:23:47;96338.81;;;6.06;100.00
11198;BME280;5655;48.744;9.162;2023-12-20T09:26:12;96333.28;;;6.11;100.00
11198;BME280;5655;48.744;9.162;2023-12-20T09:28:38;96339.16;;;5.92;100.00
11198;BME280;5655;48.744;9.162;2023-12-20T09:31:05;96339.25;;;6.20;100.00
11198;BME280;5655;48.744;9.162;2023-12-20T09:33:30;96340.16;;;6.24;100.00
11198;BME280;5655;48.744;9.162;2023-12-20T09:35:56;96346.00;;;6.29;100.00
11198;BME280;5655;48.744;9.162;2023-12-20T09:38:21;96348.75;;;6.33;100.00
11198;BME280;5655;48.744;9.162;2023-12-20T09:40:47;96340.34;;;6.31;100.00
11198;BME280;5655;48.744;9.162;2023-12-20T09:43:19;96355.03;;;6.53;100.00
11198;BME280;5655;48.744;9.162;2023-12-20T09:45:46;96360.63;;;6.75;100.00
11198;BME280;5655;48.744;9.162;2023-12-20T09:48:12;96359.13;;;6.62;100.00
11198;BME280;5655;48.744;9.162;2023-12-20T09:50:40;96367.72;;;6.71;100.00
11198;BME280;5655;48.744;9.162;2023-12-20T09:53:08;96369.16;;;6.69;100.00
11198;BME280;5655;48.744;9.162;2023-12-20T09:55:35;96367.91;;;6.78;100.00
11198;BME280;5655;48.744;9.162;2023-12-20T09:58:01;96377.00;;;6.90;100.00
11198;BME280;5655;48.744;9.162;2023-12-20T10:00:27;96387.00;;;6.80;100.00
11198;BME280;5655;48.744;9.162;2023-12-20T10:03:00;96378.03;;;7.01;100.00
11198;BME280;5655;48.744;9.162;2023-12-20T10:05:32;96374.38;;;7.05;100.00
11198;BME280;5655;48.744;9.162;2023-12-20T10:07:59;96372.50;;;7.06;100.00
11198;BME280;5655;48.744;9.162;2023-12-20T10:10:26;96385.19;;;7.12;100.00
11198;BME280;5655;48.744;9.162;2023-12-20T10:13:05;96386.06;;;7.44;100.00
11198;BME280;5655;48.744;9.162;2023-12-20T10:15:32;96392.38;;;7.67;100.00
11198;BME280;5655;48.744;9.162;2023-12-20T10:17:58;96389.00;;;7.55;100.00
11198;BME280;5655;48.744;9.162;2023-12-20T10:20:24;96390.75;;;7.35;100.00
11198;BME280;5655;48.744;9.162;2023-12-20T10:22:49;96377.66;;;7.58;100.00
11198;BME280;5655;48.744;9.162;2023-12-20T10:25:14;96373.44;;;7.57;100.00
11198;BME280;5655;48.744;9.162;2023-12-20T10:27:40;96365.00;;;7.39;100.00
11198;BME280;5655;48.744;9.162;2023-12-20T10:30:05;96358.25;;;7.14;100.00
11198;BME280;5655;48.744;9.162;2023-12-20T10:32:31;96357.00;;;6.96;100.00
11198;BME280;5655;48.744;9.162;2023-12-20T10:34:56;96339.97;;;6.84;100.00
11198;BME280;5655;48.744;9.162;2023-12-20T10:37:22;96349.06;;;6.83;100.00
11198;BME280;5655;48.744;9.162;2023-12-20T10:39:52;96347.75;;;6.77;100.00
11198;BME280;5655;48.744;9.162;2023-12-20T10:42:21;96344.34;;;6.77;100.00
11198;BME280;5655;48.744;9.162;2023-12-20T10:44:47;96349.34;;;6.66;100.00
11198;BME280;5655;48.744;9.162;2023-12-20T10:47:13;96343.09;;;6.74;100.00
11198;BME280;5655;48.744;9.162;2023-12-20T10:49:39;96352.00;;;6.66;100.00
11198;BME280;5655;48.744;9.162;2023-12-20T10:52:06;96358.25;;;6.58;100.00
11198;BME280;5655;48.744;9.162;2023-12-20T10:54:31;96348.88;;;6.76;100.00
11198;BME280;5655;48.744;9.162;2023-12-20T10:56:58;96339.53;;;6.55;100.00
11198;BME280;5655;48.744;9.162;2023-12-20T10:59:24;96346.88;;;6.73;100.00
11198;BME280;5655;48.744;9.162;2023-12-20T11:01:50;96339.78;;;6.77;100.00
11198;BME280;5655;48.744;9.162;2023-12-20T11:04:22;96335.81;;;6.71;100.00
11198;BME280;5655;48.744;9.162;2023-12-20T11:06:54;96329.66;;;6.55;100.00
11198;BME280;5655;48.744;9.162;2023-12-20T11:09:26;96338.19;;;6.49;100.00
11198;BME280;5655;48.744;9.162;2023-12-20T11:12:20;96338.28;;;6.52;100.00
11198;BME280;5655;48.744;9.162;2023-12-20T11:14:52;96335.41;;;6.57;100.00
11198;BME280;5655;48.744;9.162;2023-12-20T11:17:19;96329.91;;;6.50;100.00
11198;BME280;5655;48.744;9.162;2023-12-20T11:22:25;96332.31;;;6.55;100.00
11198;BME280;5655;48.744;9.162;2023-12-20T11:24:52;96328.84;;;6.67;100.00
11198;BME280;5655;48.744;9.162;2023-12-20T11:27:21;96325.00;;;6.64;100.00
11198;BME280;5655;48.744;9.162;2023-12-20T11:29:56;96326.38;;;6.74;100.00
11198;BME280;5655;48.744;9.162;2023-12-20T11:34:57;96332.81;;;6.73;100.00
11198;BME280;5655;48.744;9.162;2023-12-20T11:37:29;96330.81;;;6.42;100.00
11198;BME280;5655;48.744;9.162;2023-12-20T11:39:56;96322.59;;;6.47;100.00
11198;BME280;5655;48.744;9.162;2023-12-20T11:42:21;96322.84;;;6.42;100.00
11198;BME280;5655;48.744;9.162;2023-12-20T11:44:47;96324.13;;;6.48;100.00
11198;BME280;5655;48.744;9.162;2023-12-20T11:47:13;96322.59;;;6.35;100.00
11198;BME280;5655;48.744;9.162;2023-12-20T11:49:39;96325.81;;;6.80;100.00
11198;BME280;5655;48.744;9.162;2023-12-20T11:52:04;96329.31;;;6.05;100.00
11198;BME280;5655;48.744;9.162;2023-12-20T11:54:30;96332.31;;;6.55;100.00
11198;BME280;5655;48.744;9.162;2023-12-20T11:56:55;96321.25;;;6.53;100.00
11198;BME280;5655;48.744;9.162;2023-12-20T11:59:21;96325.88;;;6.56;100.00
11198;BME280;5655;48.744;9.162;2023-12-20T12:01:50;96332.97;;;6.52;100.00
11198;BME280;5655;48.744;9.162;2023-12-20T12:04:15;96324.34;;;6.43;100.00
11198;BME280;5655;48.744;9.162;2023-12-20T12:06:43;96332.84;;;6.21;100.00
11198;BME280;5655;48.744;9.162;2023-12-20T12:09:08;96311.25;;;6.10;100.00
11198;BME280;5655;48.744;9.162;2023-12-20T12:11:34;96321.78;;;6.07;100.00
11198;BME280;5655;48.744;9.162;2023-12-20T12:13:59;96320.69;;;6.08;100.00
11198;BME280;5655;48.744;9.162;2023-12-20T12:16:25;96302.97;;;6.12;100.00
11198;BME280;5655;48.744;9.162;2023-12-20T12:18:58;96307.41;;;6.08;100.00
11198;BME280;5655;48.744;9.162;2023-12-20T12:21:24;96295.22;;;6.07;100.00
11198;BME280;5655;48.744;9.162;2023-12-20T12:23:49;96288.59;;;6.41;100.00
11198;BME280;5655;48.744;9.162;2023-12-20T12:26:15;96292.53;;;6.19;100.00
11198;BME280;5655;48.744;9.162;2023-12-20T12:28:41;96291.72;;;6.43;100.00
11198;BME280;5655;48.744;9.162;2023-12-20T12:31:07;96289.56;;;6.48;100.00
11198;BME280;5655;48.744;9.162;2023-12-20T12:33:33;96283.22;;;6.25;100.00
11198;BME280;5655;48.744;9.162;2023-12-20T12:36:00;96286.28;;;6.39;100.00
11198;BME280;5655;48.744;9.162;2023-12-20T12:38:26;96294.25;;;6.39;100.00
11198;BME280;5655;48.744;9.162;2023-12-20T12:40:51;96292.09;;;6.57;100.00
11198;BME280;5655;48.744;9.162;2023-12-20T12:43:18;96289.56;;;6.48;100.00
11198;BME280;5655;48.744;9.162;2023-12-20T12:45:44;96283.50;;;6.75;100.00
11198;BME280;5655;48.744;9.162;2023-12-20T12:48:09;96282.31;;;6.61;100.00
11198;BME280;5655;48.744;9.162;2023-12-20T12:50:34;96280.94;;;6.51;100.00
11198;BME280;5655;48.744;9.162;2023-12-20T12:53:00;96277.19;;;6.40;100.00
11198;BME280;5655;48.744;9.162;2023-12-20T12:55:27;96277.59;;;6.54;100.00
11198;BME280;5655;48.744;9.162;2023-12-20T12:57:53;96286.41;;;6.30;100.00
11198;BME280;5655;48.744;9.162;2023-12-20T13:00:18;96291.19;;;6.25;100.00
11198;BME280;5655;48.744;9.162;2023-12-20T13:02:44;96296.97;;;6.15;100.00
11198;BME280;5655;48.744;9.162;2023-12-20T13:05:10;96289.31;;;6.25;100.00
11198;BME280;5655;48.744;9.162;2023-12-20T13:07:35;96285.44;;;6.23;100.00
11198;BME280;5655;48.744;9.162;2023-12-20T13:10:02;96282.09;;;6.26;100.00